createdAt,value
2023-07-25T00:01:17.480Z,100390.09
2023-07-25T00:03:44.053Z,100402.03
2023-07-25T00:06:10.606Z,100394.78
2023-07-25T00:08:38.631Z,100407.38
2023-07-25T00:11:05.186Z,100409.22
2023-07-25T00:13:31.765Z,100407.97
2023-07-25T00:15:58.310Z,100414.59
2023-07-25T00:18:24.916Z,100414.41
2023-07-25T00:20:51.478Z,100416.25
2023-07-25T00:23:18.016Z,100415.44
2023-07-25T00:25:45.919Z,100415.63
2023-07-25T00:28:12.485Z,100417.66
2023-07-25T00:30:39.138Z,100409.63
2023-07-25T00:33:05.752Z,100415.63
2023-07-25T00:35:32.447Z,100416.84
2023-07-25T00:37:59.046Z,100415.59
2023-07-25T00:40:25.799Z,100411.44
2023-07-25T00:42:57.071Z,100411.84
2023-07-25T00:45:25.193Z,100421.50
2023-07-25T00:47:53.474Z,100420.69
2023-07-25T00:50:20.159Z,100424.38
2023-07-25T00:52:46.757Z,100415.53
2023-07-25T00:55:14.011Z,100412.03
2023-07-25T00:57:40.602Z,100412.03
2023-07-25T01:00:09.320Z,100405.84
2023-07-25T01:02:36.093Z,100405.66
2023-07-25T01:05:02.770Z,100412.66
2023-07-25T01:07:30.271Z,100414.69
2023-07-25T01:09:56.861Z,100413.88
2023-07-25T01:12:23.374Z,100406.66
2023-07-25T01:14:49.977Z,100400.91
2023-07-25T01:17:21.531Z,100408.28
2023-07-25T01:19:49.811Z,100394.72
2023-07-25T01:22:16.824Z,100396.78
2023-07-25T01:24:46.460Z,100407.28
2023-07-25T01:27:13.794Z,100395.94
2023-07-25T01:29:40.554Z,100391.81
2023-07-25T01:32:08.320Z,100392.41
2023-07-25T01:34:34.968Z,100394.63
2023-07-25T01:37:01.692Z,100384.91
2023-07-25T01:39:28.235Z,100383.38
2023-07-25T01:41:56.150Z,100377.78
2023-07-25T01:44:22.699Z,100380.66
2023-07-25T01:46:49.252Z,100387.84
2023-07-25T01:49:15.803Z,100384.16
2023-07-25T01:51:42.352Z,100383.31
2023-07-25T01:54:08.927Z,100382.75
2023-07-25T01:56:35.497Z,100378.66
2023-07-25T01:59:03.480Z,100378.03
2023-07-25T02:01:30.425Z,100367.75
2023-07-25T02:03:57.444Z,100365.81
2023-07-25T02:06:24.004Z,100359.66
2023-07-25T02:08:50.573Z,100362.31
2023-07-25T02:11:17.159Z,100359.22
2023-07-25T02:13:43.712Z,100358.31
2023-07-25T02:16:11.695Z,100361.97
2023-07-25T02:18:38.291Z,100356.81
2023-07-25T02:21:04.861Z,100361.75
2023-07-25T02:23:31.421Z,100365.63
2023-07-25T02:25:58.016Z,100355.38
2023-07-25T02:28:24.624Z,100359.31
2023-07-25T02:30:51.299Z,100356.22
2023-07-25T02:33:19.172Z,100351.69
2023-07-25T02:35:45.700Z,100346.75
2023-07-25T02:38:12.375Z,100353.47
2023-07-25T02:40:38.881Z,100352.06
2023-07-25T02:43:07.923Z,100350.56
2023-07-25T02:45:34.698Z,100355.81
2023-07-25T02:48:01.467Z,100367.94
2023-07-25T02:50:29.458Z,100359.09
2023-07-25T02:52:56.002Z,100363.16
2023-07-25T02:55:22.658Z,100359.19
2023-07-25T02:57:49.211Z,100365.13
2023-07-25T03:00:15.976Z,100363.66
2023-07-25T03:02:42.554Z,100363.47
2023-07-25T03:05:09.738Z,100362.63
2023-07-25T03:07:37.668Z,100359.59
2023-07-25T03:10:04.904Z,100355.81
2023-07-25T03:12:31.446Z,100353.91
2023-07-25T03:14:58.071Z,100342.59
2023-07-25T03:17:24.793Z,100343.97
2023-07-25T03:19:51.502Z,100344.16
2023-07-25T03:22:19.321Z,100346.84
2023-07-25T03:24:47.982Z,100353.97
2023-07-25T03:27:14.888Z,100363.34
2023-07-25T03:29:41.735Z,100360.69
2023-07-25T03:32:08.691Z,100349.56
2023-07-25T03:34:35.272Z,100350.00
2023-07-25T03:37:01.879Z,100351.66
2023-07-25T03:39:28.819Z,100350.28
2023-07-25T03:41:56.721Z,100350.91
2023-07-25T03:44:23.339Z,100361.59
2023-07-25T03:46:49.897Z,100363.25
2023-07-25T03:49:16.830Z,100357.91
2023-07-25T03:51:43.398Z,100351.75
2023-07-25T03:54:10.045Z,100352.94
2023-07-25T03:56:36.911Z,100357.28
2023-07-25T03:59:04.862Z,100357.09
2023-07-25T04:01:32.084Z,100357.91
2023-07-25T04:03:59.012Z,100359.94
2023-07-25T04:06:25.690Z,100360.41
2023-07-25T04:08:52.257Z,100361.22
2023-07-25T04:11:18.835Z,100353.41
2023-07-25T04:13:45.433Z,100358.94
2023-07-25T04:16:13.392Z,100347.59
2023-07-25T04:18:40.094Z,100347.78
2023-07-25T04:21:06.670Z,100342.25
2023-07-25T04:23:33.210Z,100350.28
2023-07-25T04:25:59.809Z,100350.91
2023-07-25T04:28:26.478Z,100345.56
2023-07-25T04:30:53.040Z,100341.91
2023-07-25T04:33:20.931Z,100353.00
2023-07-25T04:35:47.541Z,100348.25
2023-07-25T04:38:14.878Z,100350.09
2023-07-25T04:40:43.100Z,100347.94
2023-07-25T04:43:09.682Z,100357.16
2023-07-25T04:45:36.572Z,100354.28
2023-07-25T04:48:03.634Z,100355.69
2023-07-25T04:50:31.559Z,100355.50
2023-07-25T04:52:58.130Z,100351.16
2023-07-25T04:55:24.838Z,100352.81
2023-07-25T04:57:52.724Z,100353.41
2023-07-25T05:00:19.446Z,100354.84
2023-07-25T05:02:46.118Z,100347.59
2023-07-25T05:05:12.765Z,100353.41
2023-07-25T05:07:40.644Z,100356.91
2023-07-25T05:10:08.160Z,100362.66
2023-07-25T05:12:34.771Z,100351.81
2023-07-25T05:15:01.317Z,100351.91
2023-07-25T05:17:27.953Z,100350.94
2023-07-25T05:19:54.537Z,100352.41
2023-07-25T05:22:21.100Z,100364.53
2023-07-25T05:24:49.129Z,100357.16
2023-07-25T05:27:15.830Z,100359.00
2023-07-25T05:29:42.385Z,100362.59
2023-07-25T05:32:09.292Z,100376.13
2023-07-25T05:34:35.834Z,100376.38
2023-07-25T05:37:02.357Z,100380.56
2023-07-25T05:39:28.887Z,100376.69
2023-07-25T05:41:56.764Z,100368.50
2023-07-25T05:44:23.306Z,100378.22
2023-07-25T05:46:49.857Z,100374.53
2023-07-25T05:49:16.438Z,100377.69
2023-07-25T05:51:43.031Z,100386.97
2023-07-25T05:54:09.580Z,100376.13
2023-07-25T05:56:36.099Z,100379.94
2023-07-25T05:59:03.960Z,100371.97
2023-07-25T06:01:31.018Z,100373.28
2023-07-25T06:03:57.904Z,100379.94
2023-07-25T06:06:24.498Z,100376.28
2023-07-25T06:08:51.066Z,100371.63
2023-07-25T06:11:17.597Z,100382.31
2023-07-25T06:13:44.222Z,100378.84
2023-07-25T06:16:12.165Z,100380.09
2023-07-25T06:18:38.682Z,100385.47
2023-07-25T06:21:05.218Z,100384.25
2023-07-25T06:23:31.842Z,100383.59
2023-07-25T06:25:58.669Z,100386.03
2023-07-25T06:28:25.219Z,100388.53
2023-07-25T06:30:51.827Z,100395.72
2023-07-25T06:33:19.784Z,100395.34
2023-07-25T06:35:46.392Z,100396.53
2023-07-25T06:38:12.965Z,100392.66
2023-07-25T06:40:39.527Z,100393.69
2023-07-25T06:43:06.080Z,100387.53
2023-07-25T06:45:32.670Z,100387.31
2023-07-25T06:47:59.256Z,100393.66
2023-07-25T06:50:27.171Z,100402.53
2023-07-25T06:52:53.728Z,100402.72
2023-07-25T06:55:20.309Z,100404.75
2023-07-25T06:57:46.893Z,100404.19
2023-07-25T07:00:14.673Z,100409.28
2023-07-25T07:02:42.112Z,100416.75
2023-07-25T07:05:23.397Z,100420.91
2023-07-25T07:07:55.508Z,100420.47
2023-07-25T07:10:22.134Z,100428.28
2023-07-25T07:12:48.672Z,100427.91
2023-07-25T07:15:15.608Z,100423.41
2023-07-25T07:17:42.217Z,100419.50
2023-07-25T07:20:09.761Z,100420.75
2023-07-25T07:22:36.325Z,100423.38
2023-07-25T07:25:04.657Z,100430.22
2023-07-25T07:27:31.199Z,100428.34
2023-07-25T07:29:57.696Z,100428.16
2023-07-25T07:32:24.314Z,100435.63
2023-07-25T07:34:50.840Z,100431.53
2023-07-25T07:37:17.387Z,100432.00
2023-07-25T07:39:43.902Z,100437.63
2023-07-25T07:42:11.808Z,100431.31
2023-07-25T07:44:38.364Z,100430.69
2023-07-25T07:47:05.189Z,100431.34
2023-07-25T07:49:33.418Z,100433.88
2023-07-25T07:52:13.557Z,100436.97
2023-07-25T07:54:44.108Z,100439.66
2023-07-25T07:57:12.066Z,100443.16
2023-07-25T07:59:38.821Z,100438.25
2023-07-25T08:02:05.449Z,100437.44
2023-07-25T08:04:31.996Z,100443.44
2023-07-25T08:06:58.600Z,100439.78
2023-07-25T08:09:25.175Z,100434.44
2023-07-25T08:11:51.712Z,100435.03
2023-07-25T08:14:19.570Z,100446.38
2023-07-25T08:16:46.209Z,100442.44
2023-07-25T08:19:12.809Z,100439.97
2023-07-25T08:21:39.800Z,100431.72
2023-07-25T08:24:06.574Z,100438.53
2023-07-25T08:26:33.220Z,100445.34
2023-07-25T08:28:59.873Z,100454.03
2023-07-25T08:31:27.798Z,100447.00
2023-07-25T08:33:54.366Z,100445.97
2023-07-25T08:36:20.940Z,100456.06
2023-07-25T08:38:47.455Z,100449.06
2023-07-25T08:41:17.564Z,100460.78
2023-07-25T08:43:44.716Z,100460.97
2023-07-25T08:46:12.538Z,100458.28
2023-07-25T08:48:42.041Z,100463.22
2023-07-25T08:51:16.727Z,100465.91
2023-07-25T08:53:53.312Z,100464.66
2023-07-25T08:56:20.418Z,100468.78
2023-07-25T08:58:48.173Z,100458.91
2023-07-25T09:01:14.894Z,100466.94
2023-07-25T09:03:43.600Z,100472.88
2023-07-25T09:06:11.973Z,100475.56
2023-07-25T09:08:39.451Z,100476.59
2023-07-25T09:11:09.639Z,100475.81
2023-07-25T09:13:36.987Z,100471.25
2023-07-25T09:16:04.045Z,100482.78
2023-07-25T09:18:30.891Z,100493.31
2023-07-25T09:20:59.217Z,100485.25
2023-07-25T09:23:25.775Z,100494.53
2023-07-25T09:26:03.771Z,100497.97
2023-07-25T09:28:30.837Z,100500.75
2023-07-25T09:30:57.926Z,100502.91
2023-07-25T09:33:25.905Z,100502.59
2023-07-25T09:35:53.018Z,100496.59
2023-07-25T09:38:21.775Z,100496.88
2023-07-25T09:40:49.015Z,100497.94
2023-07-25T09:43:22.582Z,100499.84
2023-07-25T09:45:49.263Z,100501.06
2023-07-25T09:48:16.748Z,100498.00
2023-07-25T09:50:43.779Z,100502.38
2023-07-25T09:53:11.136Z,100500.38
2023-07-25T09:55:39.153Z,100499.19
2023-07-25T09:58:06.228Z,100486.03
2023-07-25T10:00:33.039Z,100494.72
2023-07-25T10:03:00.173Z,100491.25
2023-07-25T10:05:27.549Z,100495.84
2023-07-25T10:07:55.454Z,100489.94
2023-07-25T10:10:25.331Z,100486.84
2023-07-25T10:12:53.655Z,100489.31
2023-07-25T10:15:20.701Z,100488.88
2023-07-25T10:17:47.382Z,100489.41
2023-07-25T10:20:21.309Z,100496.44
2023-07-25T10:22:48.069Z,100493.59
2023-07-25T10:25:20.448Z,100499.19
2023-07-25T10:27:47.502Z,100494.00
2023-07-25T10:30:26.663Z,100496.50
2023-07-25T10:32:54.666Z,100488.88
2023-07-25T10:35:40.744Z,100489.41
2023-07-25T10:38:09.821Z,100491.44
2023-07-25T10:40:56.570Z,100486.66
2023-07-25T10:43:27.604Z,100481.78
2023-07-25T10:45:56.728Z,100499.31
2023-07-25T10:48:43.505Z,100489.69
2023-07-25T10:51:10.106Z,100490.31
2023-07-25T10:53:36.826Z,100487.41
2023-07-25T10:56:17.116Z,100487.88
2023-07-25T10:59:09.508Z,100484.41
2023-07-25T11:01:40.152Z,100487.88
2023-07-25T11:04:27.509Z,100473.34
2023-07-25T11:06:55.435Z,100478.63
2023-07-25T11:09:22.862Z,100485.59
2023-07-25T11:11:51.175Z,100482.28
2023-07-25T11:14:19.054Z,100485.94
2023-07-25T11:16:49.201Z,100476.41
2023-07-25T11:19:15.783Z,100476.19
2023-07-25T11:21:43.436Z,100473.75
2023-07-25T11:24:11.087Z,100476.78
2023-07-25T11:26:38.071Z,100474.97
2023-07-25T11:29:05.789Z,100479.81
2023-07-25T11:31:32.699Z,100477.38
2023-07-25T11:34:10.068Z,100478.91
2023-07-25T11:36:37.639Z,100485.94
2023-07-25T11:39:04.325Z,100483.84
2023-07-25T11:41:31.158Z,100478.22
2023-07-25T11:43:59.043Z,100490.72
2023-07-25T11:46:26.447Z,100482.53
2023-07-25T11:48:53.657Z,100490.34
2023-07-25T11:51:21.821Z,100482.03
2023-07-25T11:53:48.501Z,100490.88
2023-07-25T11:56:15.151Z,100486.97
2023-07-25T11:58:47.589Z,100492.59
2023-07-25T12:01:14.204Z,100480.53
2023-07-25T12:03:46.720Z,100485.16
2023-07-25T12:06:13.355Z,100495.63
2023-07-25T12:08:44.146Z,100499.22
2023-07-25T12:11:11.873Z,100500.88
2023-07-25T12:13:46.048Z,100500.63
2023-07-25T12:16:28.316Z,100494.00
2023-07-25T12:18:57.116Z,100500.44
2023-07-25T12:21:26.314Z,100503.25
2023-07-25T12:23:55.430Z,100500.03
2023-07-25T12:26:22.212Z,100501.25
2023-07-25T12:28:50.600Z,100507.16
2023-07-25T12:31:17.773Z,100502.28
2023-07-25T12:33:44.928Z,100507.56
2023-07-25T12:36:12.516Z,100490.22
2023-07-25T12:38:39.113Z,100512.59
2023-07-25T12:41:08.455Z,100503.94
2023-07-25T12:43:35.388Z,100514.25
2023-07-25T12:46:02.314Z,100509.50
2023-07-25T12:48:28.904Z,100505.16
2023-07-25T12:50:55.672Z,100505.94
2023-07-25T12:53:22.219Z,100516.16
2023-07-25T12:55:48.777Z,100514.41
2023-07-25T12:58:16.902Z,100513.50
2023-07-25T13:00:43.658Z,100506.44
2023-07-25T13:03:10.486Z,100522.38
2023-07-25T13:05:37.359Z,100518.09
2023-07-25T13:08:04.559Z,100521.06
2023-07-25T13:10:31.135Z,100519.31
2023-07-25T13:12:57.727Z,100517.66
2023-07-25T13:15:25.670Z,100531.44
2023-07-25T13:17:52.297Z,100516.44
2023-07-25T13:20:18.914Z,100522.34
2023-07-25T13:22:45.437Z,100521.16
2023-07-25T13:25:12.048Z,100526.28
2023-07-25T13:27:38.648Z,100525.88
2023-07-25T13:30:06.509Z,100523.28
2023-07-25T13:32:34.532Z,100525.66
2023-07-25T13:35:01.186Z,100522.69
2023-07-25T13:37:27.909Z,100529.25
2023-07-25T13:39:54.500Z,100528.59
2023-07-25T13:42:21.103Z,100519.00
2023-07-25T13:44:47.705Z,100531.34
2023-07-25T13:47:14.400Z,100525.34
2023-07-25T13:49:42.594Z,100528.66
2023-07-25T13:52:09.210Z,100522.22
2023-07-25T13:54:35.926Z,100518.66
2023-07-25T13:57:02.503Z,100522.09
2023-07-25T13:59:29.839Z,100519.91
2023-07-25T14:01:56.387Z,100520.72
2023-07-25T14:04:22.934Z,100516.81
2023-07-25T14:06:50.924Z,100522.53
2023-07-25T14:09:17.592Z,100519.88
2023-07-25T14:11:44.284Z,100518.69
2023-07-25T14:14:10.933Z,100516.47
2023-07-25T14:16:37.459Z,100528.09
2023-07-25T14:19:04.154Z,100525.94
2023-07-25T14:21:30.899Z,100528.81
2023-07-25T14:23:58.981Z,100528.44
2023-07-25T14:26:25.493Z,100529.47
2023-07-25T14:28:52.030Z,100535.25
2023-07-25T14:31:18.681Z,100522.88
2023-07-25T14:33:45.282Z,100528.38
2023-07-25T14:36:11.847Z,100531.72
2023-07-25T14:38:38.363Z,100540.66
2023-07-25T14:41:07.377Z,100542.47
2023-07-25T14:43:34.035Z,100552.63
2023-07-25T14:46:00.611Z,100551.66
2023-07-25T14:48:27.196Z,100544.53
2023-07-25T14:50:53.804Z,100548.44
2023-07-25T14:53:20.472Z,100548.38
2023-07-25T14:55:47.051Z,100544.84
2023-07-25T14:58:15.160Z,100550.50
2023-07-25T15:00:41.901Z,100556.78
2023-07-25T15:03:08.702Z,100561.31
2023-07-25T15:05:35.302Z,100571.06
2023-07-25T15:08:01.968Z,100572.78
2023-07-25T15:10:28.819Z,100557.75
2023-07-25T15:12:55.424Z,100569.63
2023-07-25T15:15:23.370Z,100564.31
2023-07-25T15:17:49.992Z,100557.34
2023-07-25T15:20:16.627Z,100569.34
2023-07-25T15:22:43.952Z,100571.53
2023-07-25T15:25:10.546Z,100580.88
2023-07-25T15:27:37.139Z,100585.59
2023-07-25T15:30:04.232Z,100586.91
2023-07-25T15:32:32.401Z,100588.78
2023-07-25T15:34:58.970Z,100592.59
2023-07-25T15:37:25.872Z,100588.25
2023-07-25T15:39:52.423Z,100594.88
2023-07-25T15:42:19.005Z,100582.44
2023-07-25T15:44:45.575Z,100579.56
2023-07-25T15:47:12.147Z,100589.84
2023-07-25T15:49:40.010Z,100596.97
2023-07-25T15:52:07.064Z,100588.00
2023-07-25T15:54:33.670Z,100587.75
2023-07-25T15:57:00.219Z,100586.56
2023-07-25T15:59:26.738Z,100587.19
2023-07-25T16:01:53.845Z,100584.53
2023-07-25T16:04:21.032Z,100583.97
2023-07-25T16:06:48.907Z,100585.81
2023-07-25T16:09:15.510Z,100590.47
2023-07-25T16:11:42.183Z,100592.78
2023-07-25T16:14:08.828Z,100585.31
2023-07-25T16:16:35.465Z,100593.63
2023-07-25T16:19:02.229Z,100585.75
2023-07-25T16:21:31.148Z,100590.00
2023-07-25T16:23:59.297Z,100589.25
2023-07-25T16:26:25.928Z,100593.53
2023-07-25T16:28:52.478Z,100591.44
2023-07-25T16:31:31.909Z,100591.06
2023-07-25T16:33:59.901Z,100591.13
2023-07-25T16:36:26.486Z,100594.28
2023-07-25T16:38:53.493Z,100596.81
2023-07-25T16:41:21.378Z,100597.88
2023-07-25T16:43:47.959Z,100600.78
2023-07-25T16:46:14.677Z,100609.41
2023-07-25T16:48:41.513Z,100615.41
2023-07-25T16:51:08.447Z,100610.75
2023-07-25T16:53:35.056Z,100608.47
2023-07-25T16:56:01.625Z,100616.00
2023-07-25T16:58:29.680Z,100614.56
2023-07-25T17:00:56.247Z,100617.25
2023-07-25T17:03:23.279Z,100622.69
2023-07-25T17:05:50.051Z,100618.34
2023-07-25T17:08:16.748Z,100617.91
2023-07-25T17:10:44.670Z,100630.44
2023-07-25T17:13:11.299Z,100627.84
2023-07-25T17:15:39.197Z,100630.16
2023-07-25T17:18:05.824Z,100629.50
2023-07-25T17:20:32.428Z,100629.22
2023-07-25T17:22:59.062Z,100631.53
2023-07-25T17:25:25.584Z,100638.56
2023-07-25T17:27:54.403Z,100647.13
2023-07-25T17:30:21.884Z,100639.28
2023-07-25T17:32:49.977Z,100650.06
2023-07-25T17:35:23.910Z,100651.56
2023-07-25T17:37:58.524Z,100657.06
2023-07-25T17:40:25.261Z,100652.88
2023-07-25T17:42:51.845Z,100659.31
2023-07-25T17:45:18.392Z,100663.06
2023-07-25T17:47:45.039Z,100674.25
2023-07-25T17:50:12.975Z,100670.78
2023-07-25T17:52:39.513Z,100675.00
2023-07-25T17:55:07.360Z,100670.78
2023-07-25T17:57:33.909Z,100684.13
2023-07-25T18:00:00.495Z,100685.00
2023-07-25T18:02:27.079Z,100679.63
2023-07-25T18:04:53.696Z,100684.38
2023-07-25T18:07:21.579Z,100683.09
2023-07-25T18:09:48.124Z,100680.03
2023-07-25T18:12:14.764Z,100678.03
2023-07-25T18:14:41.407Z,100676.09
2023-07-25T18:17:07.963Z,100680.94
2023-07-25T18:19:34.612Z,100680.47
2023-07-25T18:22:01.153Z,100681.25
2023-07-25T18:24:29.113Z,100691.03
2023-07-25T18:26:55.722Z,100686.91
2023-07-25T18:29:22.302Z,100697.25
2023-07-25T18:31:49.073Z,100695.00
2023-07-25T18:34:15.778Z,100706.06
2023-07-25T18:36:42.354Z,100705.31
2023-07-25T18:39:08.919Z,100710.97
2023-07-25T18:41:36.872Z,100706.47
2023-07-25T18:44:03.470Z,100712.50
2023-07-25T18:46:30.442Z,100708.03
2023-07-25T18:48:57.254Z,100713.63
2023-07-25T18:51:23.841Z,100718.19
2023-07-25T18:53:50.405Z,100715.31
2023-07-25T18:56:16.965Z,100727.94
2023-07-25T18:58:44.843Z,100725.69
2023-07-25T19:01:11.499Z,100729.41
2023-07-25T19:03:38.122Z,100734.56
2023-07-25T19:06:04.684Z,100738.06
2023-07-25T19:08:31.277Z,100736.00
2023-07-25T19:10:57.839Z,100740.72
2023-07-25T19:13:24.385Z,100746.47
2023-07-25T19:15:52.308Z,100744.78
2023-07-25T19:18:18.874Z,100755.91
2023-07-25T19:20:45.481Z,100753.84
2023-07-25T19:23:25.046Z,100760.44
2023-07-25T19:25:56.316Z,100764.53
2023-07-25T19:28:22.871Z,100771.94
2023-07-25T19:30:49.472Z,100768.63
2023-07-25T19:33:17.456Z,100765.69
2023-07-25T19:35:51.016Z,100778.25
2023-07-25T19:38:17.614Z,100781.31
2023-07-25T19:40:44.485Z,100783.56
2023-07-25T19:43:11.071Z,100795.75
2023-07-25T19:45:37.618Z,100793.69
2023-07-25T19:48:04.467Z,100796.31
2023-07-25T19:50:32.547Z,100800.34
2023-07-25T19:52:59.193Z,100804.19
2023-07-25T19:55:25.780Z,100805.38
2023-07-25T19:57:52.375Z,100804.25
2023-07-25T20:00:19.022Z,100804.81
2023-07-25T20:02:45.709Z,100803.56
2023-07-25T20:05:12.329Z,100809.13
2023-07-25T20:07:40.201Z,100818.38
2023-07-25T20:10:07.343Z,100809.03
2023-07-25T20:12:33.877Z,100807.97
2023-07-25T20:15:00.475Z,100811.69
2023-07-25T20:17:27.092Z,100811.63
2023-07-25T20:19:53.680Z,100829.09
2023-07-25T20:22:20.241Z,100826.38
2023-07-25T20:24:48.195Z,100829.59
2023-07-25T20:27:14.809Z,100841.09
2023-07-25T20:29:41.356Z,100839.22
2023-07-25T20:32:09.188Z,100837.75
2023-07-25T20:34:35.719Z,100846.63
2023-07-25T20:37:02.361Z,100846.63
2023-07-25T20:39:28.905Z,100842.47
2023-07-25T20:41:56.836Z,100844.69
2023-07-25T20:44:23.462Z,100847.97
2023-07-25T20:46:50.076Z,100851.19
2023-07-25T20:49:16.717Z,100851.38
2023-07-25T20:51:43.238Z,100859.78
2023-07-25T20:54:09.768Z,100860.16
2023-07-25T20:56:36.361Z,100849.97
2023-07-25T20:59:04.272Z,100855.69
2023-07-25T21:01:30.856Z,100858.59
2023-07-25T21:03:57.488Z,100859.13
2023-07-25T21:06:24.131Z,100865.03
2023-07-25T21:08:50.665Z,100861.09
2023-07-25T21:11:17.227Z,100863.13
2023-07-25T21:13:43.814Z,100861.81
2023-07-25T21:16:11.669Z,100871.06
2023-07-25T21:18:38.308Z,100858.41
2023-07-25T21:21:04.855Z,100866.63
2023-07-25T21:23:31.532Z,100865.16
2023-07-25T21:25:58.162Z,100869.06
2023-07-25T21:28:24.782Z,100862.03
2023-07-25T21:30:51.379Z,100864.06
2023-07-25T21:33:19.366Z,100873.28
2023-07-25T21:35:45.952Z,100871.78
2023-07-25T21:38:12.526Z,100869.31
2023-07-25T21:40:39.098Z,100875.88
2023-07-25T21:43:05.674Z,100873.56
2023-07-25T21:45:32.316Z,100873.91
2023-07-25T21:47:58.907Z,100872.47
2023-07-25T21:50:26.936Z,100872.47
2023-07-25T21:52:53.558Z,100867.09
2023-07-25T21:55:20.172Z,100872.25
2023-07-25T21:57:46.720Z,100873.91
2023-07-25T22:00:13.492Z,100880.09
2023-07-25T22:02:41.199Z,100878.25
2023-07-25T22:05:08.200Z,100884.44
2023-07-25T22:07:36.117Z,100875.75
2023-07-25T22:10:02.678Z,100877.59
2023-07-25T22:12:29.340Z,100881.56
2023-07-25T22:14:55.958Z,100878.06
2023-07-25T22:17:22.566Z,100879.91
2023-07-25T22:19:49.091Z,100882.78
2023-07-25T22:22:15.666Z,100884.00
2023-07-25T22:24:43.567Z,100888.50
2023-07-25T22:27:10.142Z,100885.84
2023-07-25T22:29:36.653Z,100881.31
2023-07-25T22:32:03.250Z,100887.69
2023-07-25T22:34:29.852Z,100885.00
2023-07-25T22:36:56.411Z,100877.81
2023-07-25T22:39:23.029Z,100888.03
2023-07-25T22:41:50.970Z,100891.72
2023-07-25T22:44:17.698Z,100888.03
2023-07-25T22:46:44.453Z,100889.03
2023-07-25T22:49:11.052Z,100890.72
2023-07-25T22:51:37.603Z,100885.34
2023-07-25T22:54:04.200Z,100886.53
2023-07-25T22:56:30.888Z,100888.38
2023-07-25T22:58:59.101Z,100876.03
2023-07-25T23:01:25.729Z,100881.38
2023-07-25T23:03:52.307Z,100875.00
2023-07-25T23:06:18.844Z,100880.53
2023-07-25T23:08:45.384Z,100880.94
2023-07-25T23:11:11.939Z,100881.75
2023-07-25T23:13:38.513Z,100878.44
2023-07-25T23:16:06.803Z,100880.09
2023-07-25T23:18:33.363Z,100880.09
2023-07-25T23:21:00.420Z,100877.59
2023-07-25T23:23:27.058Z,100872.06
2023-07-25T23:25:53.602Z,100877.41
2023-07-25T23:28:20.141Z,100875.59
2023-07-25T23:30:46.733Z,100878.03
2023-07-25T23:33:14.749Z,100879.72
2023-07-25T23:35:41.333Z,100883.59
2023-07-25T23:38:07.876Z,100887.72
2023-07-25T23:40:34.530Z,100878.88
2023-07-25T23:43:01.088Z,100885.44
2023-07-25T23:45:27.736Z,100890.13
2023-07-25T23:47:54.288Z,100883.13
2023-07-25T23:50:22.225Z,100885.16
2023-07-25T23:52:48.832Z,100895.19
2023-07-25T23:55:15.919Z,100892.50
2023-07-25T23:57:42.482Z,100889.00
